sensor_id;sensor_type;location;lat;lon;timestamp;P1;durP1;ratioP1;P2;durP2;ratioP2
43487;SDS011;29078;41.932;25.554;2023-01-16T00:01:57;25.83;;;16.25;;
43487;SDS011;29078;41.932;25.554;2023-01-16T00:04:23;26.00;;;17.30;;
43487;SDS011;29078;41.932;25.554;2023-01-16T00:06:49;28.85;;;16.67;;
43487;SDS011;29078;41.932;25.554;2023-01-16T00:09:14;27.02;;;17.85;;
43487;SDS011;29078;41.932;25.554;2023-01-16T00:11:39;25.15;;;18.13;;
43487;SDS011;29078;41.932;25.554;2023-01-16T00:14:05;27.10;;;17.95;;
43487;SDS011;29078;41.932;25.554;2023-01-16T00:16:31;26.70;;;18.20;;
43487;SDS011;29078;41.932;25.554;2023-01-16T00:18:56;26.75;;;18.45;;
43487;SDS011;29078;41.932;25.554;2023-01-16T00:21:22;27.83;;;19.00;;
43487;SDS011;29078;41.932;25.554;2023-01-16T00:23:55;24.85;;;17.60;;
43487;SDS011;29078;41.932;25.554;2023-01-16T00:26:22;24.15;;;17.23;;
43487;SDS011;29078;41.932;25.554;2023-01-16T00:28:48;25.58;;;18.50;;
43487;SDS011;29078;41.932;25.554;2023-01-16T00:31:14;28.00;;;19.08;;
43487;SDS011;29078;41.932;25.554;2023-01-16T00:33:40;29.42;;;19.90;;
43487;SDS011;29078;41.932;25.554;2023-01-16T00:36:07;31.83;;;20.85;;
43487;SDS011;29078;41.932;25.554;2023-01-16T00:38:33;31.90;;;21.08;;
43487;SDS011;29078;41.932;25.554;2023-01-16T00:40:58;36.63;;;22.58;;
43487;SDS011;29078;41.932;25.554;2023-01-16T00:43:24;34.05;;;22.40;;
43487;SDS011;29078;41.932;25.554;2023-01-16T00:45:49;34.72;;;25.33;;
43487;SDS011;29078;41.932;25.554;2023-01-16T00:48:15;38.05;;;24.38;;
43487;SDS011;29078;41.932;25.554;2023-01-16T00:50:40;37.72;;;25.98;;
43487;SDS011;29078;41.932;25.554;2023-01-16T00:53:06;40.67;;;25.13;;
43487;SDS011;29078;41.932;25.554;2023-01-16T00:55:35;38.50;;;25.05;;
43487;SDS011;29078;41.932;25.554;2023-01-16T00:58:02;39.63;;;25.60;;
43487;SDS011;29078;41.932;25.554;2023-01-16T01:00:28;42.38;;;24.30;;
43487;SDS011;29078;41.932;25.554;2023-01-16T01:02:54;34.75;;;24.10;;
43487;SDS011;29078;41.932;25.554;2023-01-16T01:05:19;40.10;;;25.77;;
43487;SDS011;29078;41.932;25.554;2023-01-16T01:07:45;37.05;;;24.52;;
43487;SDS011;29078;41.932;25.554;2023-01-16T01:10:11;38.42;;;24.27;;
43487;SDS011;29078;41.932;25.554;2023-01-16T01:12:36;38.13;;;24.92;;
43487;SDS011;29078;41.932;25.554;2023-01-16T01:15:02;33.15;;;20.35;;
43487;SDS011;29078;41.932;25.554;2023-01-16T01:17:28;36.13;;;23.35;;
43487;SDS011;29078;41.932;25.554;2023-01-16T01:19:53;38.58;;;24.33;;
43487;SDS011;29078;41.932;25.554;2023-01-16T01:22:18;36.17;;;22.02;;
43487;SDS011;29078;41.932;25.554;2023-01-16T01:24:46;32.58;;;20.88;;
43487;SDS011;29078;41.932;25.554;2023-01-16T01:27:13;33.47;;;21.83;;
43487;SDS011;29078;41.932;25.554;2023-01-16T01:29:38;36.20;;;23.10;;
43487;SDS011;29078;41.932;25.554;2023-01-16T01:32:04;34.42;;;24.02;;
43487;SDS011;29078;41.932;25.554;2023-01-16T01:34:31;37.60;;;22.75;;
43487;SDS011;29078;41.932;25.554;2023-01-16T01:36:58;36.03;;;24.80;;
43487;SDS011;29078;41.932;25.554;2023-01-16T01:39:25;38.20;;;25.13;;
43487;SDS011;29078;41.932;25.554;2023-01-16T01:41:50;34.90;;;23.30;;
43487;SDS011;29078;41.932;25.554;2023-01-16T01:47:18;36.25;;;22.65;;
43487;SDS011;29078;41.932;25.554;2023-01-16T01:49:48;33.38;;;22.13;;
43487;SDS011;29078;41.932;25.554;2023-01-16T01:52:15;33.97;;;22.75;;
43487;SDS011;29078;41.932;25.554;2023-01-16T01:54:43;34.13;;;22.50;;
43487;SDS011;29078;41.932;25.554;2023-01-16T01:57:21;27.50;;;19.60;;
43487;SDS011;29078;41.932;25.554;2023-01-16T01:59:56;26.35;;;18.30;;
43487;SDS011;29078;41.932;25.554;2023-01-16T02:02:26;24.65;;;17.25;;
43487;SDS011;29078;41.932;25.554;2023-01-16T02:04:56;22.73;;;16.42;;
43487;SDS011;29078;41.932;25.554;2023-01-16T02:07:22;21.63;;;15.38;;
43487;SDS011;29078;41.932;25.554;2023-01-16T02:09:50;21.77;;;16.90;;
43487;SDS011;29078;41.932;25.554;2023-01-16T02:12:21;18.73;;;14.10;;
43487;SDS011;29078;41.932;25.554;2023-01-16T02:14:46;18.70;;;14.00;;
43487;SDS011;29078;41.932;25.554;2023-01-16T02:17:15;16.38;;;12.45;;
43487;SDS011;29078;41.932;25.554;2023-01-16T02:35:49;19.80;;;13.70;;
43487;SDS011;29078;41.932;25.554;2023-01-16T02:41:33;20.23;;;13.65;;
43487;SDS011;29078;41.932;25.554;2023-01-16T02:44:23;17.80;;;12.30;;
43487;SDS011;29078;41.932;25.554;2023-01-16T02:55:40;19.80;;;13.02;;
43487;SDS011;29078;41.932;25.554;2023-01-16T02:58:12;18.00;;;13.00;;
43487;SDS011;29078;41.932;25.554;2023-01-16T03:00:47;16.55;;;12.93;;
43487;SDS011;29078;41.932;25.554;2023-01-16T03:03:19;16.55;;;12.70;;
43487;SDS011;29078;41.932;25.554;2023-01-16T03:05:53;17.30;;;13.30;;
43487;SDS011;29078;41.932;25.554;2023-01-16T03:11:27;17.20;;;13.32;;
43487;SDS011;29078;41.932;25.554;2023-01-16T03:14:01;17.60;;;13.35;;
43487;SDS011;29078;41.932;25.554;2023-01-16T03:19:27;18.45;;;13.07;;
43487;SDS011;29078;41.932;25.554;2023-01-16T03:28:05;14.68;;;11.77;;
43487;SDS011;29078;41.932;25.554;2023-01-16T03:33:21;14.70;;;11.70;;
43487;SDS011;29078;41.932;25.554;2023-01-16T03:35:59;15.00;;;11.68;;
43487;SDS011;29078;41.932;25.554;2023-01-16T03:38:31;19.25;;;12.85;;
43487;SDS011;29078;41.932;25.554;2023-01-16T03:40:59;15.43;;;12.98;;
43487;SDS011;29078;41.932;25.554;2023-01-16T03:43:35;15.20;;;12.55;;
43487;SDS011;29078;41.932;25.554;2023-01-16T03:46:12;15.95;;;12.68;;
43487;SDS011;29078;41.932;25.554;2023-01-16T03:48:53;14.60;;;11.82;;
43487;SDS011;29078;41.932;25.554;2023-01-16T03:51:35;14.52;;;12.02;;
43487;SDS011;29078;41.932;25.554;2023-01-16T03:56:56;18.60;;;12.82;;
43487;SDS011;29078;41.932;25.554;2023-01-16T03:59:53;17.08;;;13.45;;
43487;SDS011;29078;41.932;25.554;2023-01-16T04:07:32;16.42;;;13.30;;
43487;SDS011;29078;41.932;25.554;2023-01-16T04:10:02;15.88;;;13.18;;
43487;SDS011;29078;41.932;25.554;2023-01-16T04:12:41;18.35;;;13.32;;
43487;SDS011;29078;41.932;25.554;2023-01-16T04:15:09;16.83;;;13.63;;
43487;SDS011;29078;41.932;25.554;2023-01-16T04:17:35;18.77;;;13.73;;
43487;SDS011;29078;41.932;25.554;2023-01-16T04:20:02;16.30;;;13.02;;
43487;SDS011;29078;41.932;25.554;2023-01-16T04:22:28;18.70;;;13.40;;
43487;SDS011;29078;41.932;25.554;2023-01-16T04:24:59;17.95;;;14.23;;
43487;SDS011;29078;41.932;25.554;2023-01-16T04:27:26;20.35;;;14.02;;
43487;SDS011;29078;41.932;25.554;2023-01-16T04:29:52;22.23;;;16.65;;
43487;SDS011;29078;41.932;25.554;2023-01-16T04:32:18;19.52;;;16.02;;
43487;SDS011;29078;41.932;25.554;2023-01-16T04:34:43;27.10;;;18.55;;
43487;SDS011;29078;41.932;25.554;2023-01-16T04:37:11;23.83;;;18.15;;
43487;SDS011;29078;41.932;25.554;2023-01-16T04:39:38;18.35;;;14.80;;
43487;SDS011;29078;41.932;25.554;2023-01-16T04:42:05;18.35;;;13.73;;
43487;SDS011;29078;41.932;25.554;2023-01-16T04:44:31;19.33;;;13.43;;
43487;SDS011;29078;41.932;25.554;2023-01-16T04:46:56;16.52;;;14.32;;
43487;SDS011;29078;41.932;25.554;2023-01-16T04:49:21;17.83;;;14.48;;
43487;SDS011;29078;41.932;25.554;2023-01-16T04:51:47;18.75;;;14.55;;
43487;SDS011;29078;41.932;25.554;2023-01-16T04:54:13;18.63;;;14.77;;
43487;SDS011;29078;41.932;25.554;2023-01-16T04:56:40;18.55;;;13.93;;
43487;SDS011;29078;41.932;25.554;2023-01-16T04:59:07;19.35;;;14.77;;
43487;SDS011;29078;41.932;25.554;2023-01-16T05:01:33;19.70;;;15.32;;
43487;SDS011;29078;41.932;25.554;2023-01-16T05:04:03;21.25;;;16.33;;
43487;SDS011;29078;41.932;25.554;2023-01-16T05:06:30;19.38;;;14.50;;
43487;SDS011;29078;41.932;25.554;2023-01-16T05:08:56;18.00;;;14.98;;
43487;SDS011;29078;41.932;25.554;2023-01-16T05:11:21;18.67;;;14.25;;
43487;SDS011;29078;41.932;25.554;2023-01-16T05:13:47;17.25;;;12.77;;
43487;SDS011;29078;41.932;25.554;2023-01-16T05:16:12;18.98;;;14.57;;
43487;SDS011;29078;41.932;25.554;2023-01-16T05:18:38;23.30;;;17.30;;
43487;SDS011;29078;41.932;25.554;2023-01-16T05:21:03;24.02;;;17.10;;
43487;SDS011;29078;41.932;25.554;2023-01-16T05:23:30;24.20;;;17.83;;
43487;SDS011;29078;41.932;25.554;2023-01-16T05:25:58;24.55;;;18.30;;
43487;SDS011;29078;41.932;25.554;2023-01-16T05:28:23;23.55;;;18.65;;
43487;SDS011;29078;41.932;25.554;2023-01-16T05:30:49;25.73;;;19.80;;
43487;SDS011;29078;41.932;25.554;2023-01-16T05:33:15;23.90;;;19.55;;
43487;SDS011;29078;41.932;25.554;2023-01-16T05:35:41;21.63;;;17.52;;
43487;SDS011;29078;41.932;25.554;2023-01-16T05:38:06;18.90;;;15.63;;
43487;SDS011;29078;41.932;25.554;2023-01-16T05:40:31;20.52;;;16.15;;
43487;SDS011;29078;41.932;25.554;2023-01-16T05:42:57;18.30;;;14.57;;
43487;SDS011;29078;41.932;25.554;2023-01-16T05:45:22;19.65;;;15.10;;
43487;SDS011;29078;41.932;25.554;2023-01-16T05:47:48;18.40;;;14.73;;
43487;SDS011;29078;41.932;25.554;2023-01-16T05:50:13;19.83;;;15.57;;
43487;SDS011;29078;41.932;25.554;2023-01-16T05:52:39;22.55;;;16.88;;
43487;SDS011;29078;41.932;25.554;2023-01-16T05:55:04;21.27;;;16.15;;
43487;SDS011;29078;41.932;25.554;2023-01-16T05:57:30;24.05;;;19.10;;
43487;SDS011;29078;41.932;25.554;2023-01-16T05:59:55;23.60;;;19.83;;
43487;SDS011;29078;41.932;25.554;2023-01-16T06:02:21;23.00;;;18.13;;
43487;SDS011;29078;41.932;25.554;2023-01-16T06:04:47;22.40;;;18.25;;
43487;SDS011;29078;41.932;25.554;2023-01-16T06:07:13;23.63;;;18.70;;
43487;SDS011;29078;41.932;25.554;2023-01-16T06:09:38;25.13;;;19.45;;
43487;SDS011;29078;41.932;25.554;2023-01-16T06:12:04;20.02;;;16.85;;
43487;SDS011;29078;41.932;25.554;2023-01-16T06:14:32;21.17;;;15.95;;
43487;SDS011;29078;41.932;25.554;2023-01-16T06:16:58;19.60;;;16.40;;
43487;SDS011;29078;41.932;25.554;2023-01-16T06:19:24;19.75;;;15.93;;
43487;SDS011;29078;41.932;25.554;2023-01-16T06:21:49;19.95;;;16.45;;
43487;SDS011;29078;41.932;25.554;2023-01-16T06:24:14;23.92;;;17.95;;
43487;SDS011;29078;41.932;25.554;2023-01-16T06:26:40;37.40;;;29.10;;
43487;SDS011;29078;41.932;25.554;2023-01-16T06:29:05;40.95;;;30.50;;
43487;SDS011;29078;41.932;25.554;2023-01-16T06:31:31;41.40;;;31.48;;
43487;SDS011;29078;41.932;25.554;2023-01-16T06:33:56;40.30;;;31.15;;
43487;SDS011;29078;41.932;25.554;2023-01-16T06:36:21;46.55;;;33.95;;
43487;SDS011;29078;41.932;25.554;2023-01-16T06:38:47;50.60;;;37.28;;
43487;SDS011;29078;41.932;25.554;2023-01-16T06:41:12;45.13;;;32.50;;
43487;SDS011;29078;41.932;25.554;2023-01-16T06:43:37;44.30;;;31.88;;
43487;SDS011;29078;41.932;25.554;2023-01-16T06:46:03;45.22;;;29.75;;
43487;SDS011;29078;41.932;25.554;2023-01-16T06:48:28;65.93;;;40.10;;
43487;SDS011;29078;41.932;25.554;2023-01-16T06:50:54;66.25;;;42.70;;
43487;SDS011;29078;41.932;25.554;2023-01-16T06:53:19;65.28;;;37.30;;
43487;SDS011;29078;41.932;25.554;2023-01-16T06:55:45;50.13;;;31.75;;
43487;SDS011;29078;41.932;25.554;2023-01-16T06:58:11;68.82;;;35.03;;
43487;SDS011;29078;41.932;25.554;2023-01-16T07:00:37;64.00;;;31.63;;
43487;SDS011;29078;41.932;25.554;2023-01-16T07:03:02;57.13;;;30.83;;
43487;SDS011;29078;41.932;25.554;2023-01-16T07:05:29;68.30;;;34.33;;
43487;SDS011;29078;41.932;25.554;2023-01-16T07:07:56;66.25;;;37.67;;
43487;SDS011;29078;41.932;25.554;2023-01-16T07:10:23;63.53;;;35.10;;
43487;SDS011;29078;41.932;25.554;2023-01-16T07:12:49;61.67;;;34.75;;
43487;SDS011;29078;41.932;25.554;2023-01-16T07:15:16;60.97;;;34.47;;
43487;SDS011;29078;41.932;25.554;2023-01-16T07:18:00;54.53;;;34.25;;
43487;SDS011;29078;41.932;25.554;2023-01-16T07:20:46;47.70;;;28.42;;
43487;SDS011;29078;41.932;25.554;2023-01-16T07:23:36;42.88;;;26.33;;
43487;SDS011;29078;41.932;25.554;2023-01-16T07:26:05;57.60;;;34.90;;
43487;SDS011;29078;41.932;25.554;2023-01-16T07:28:32;64.05;;;37.53;;
43487;SDS011;29078;41.932;25.554;2023-01-16T07:30:58;71.97;;;37.60;;
43487;SDS011;29078;41.932;25.554;2023-01-16T07:33:28;59.55;;;34.60;;
43487;SDS011;29078;41.932;25.554;2023-01-16T07:35:53;59.97;;;35.22;;
43487;SDS011;29078;41.932;25.554;2023-01-16T07:38:19;55.53;;;32.15;;
43487;SDS011;29078;41.932;25.554;2023-01-16T07:40:44;50.03;;;32.58;;
43487;SDS011;29078;41.932;25.554;2023-01-16T07:43:10;51.58;;;32.47;;
43487;SDS011;29078;41.932;25.554;2023-01-16T07:45:35;50.58;;;31.15;;
43487;SDS011;29078;41.932;25.554;2023-01-16T07:48:00;38.38;;;28.30;;
43487;SDS011;29078;41.932;25.554;2023-01-16T07:50:26;27.13;;;20.67;;
43487;SDS011;29078;41.932;25.554;2023-01-16T07:52:52;25.20;;;18.23;;
43487;SDS011;29078;41.932;25.554;2023-01-16T07:55:18;26.85;;;19.17;;
43487;SDS011;29078;41.932;25.554;2023-01-16T07:57:43;27.13;;;18.00;;
43487;SDS011;29078;41.932;25.554;2023-01-16T08:00:09;23.08;;;17.50;;
43487;SDS011;29078;41.932;25.554;2023-01-16T08:02:36;17.75;;;13.93;;
43487;SDS011;29078;41.932;25.554;2023-01-16T08:05:02;26.80;;;19.80;;
43487;SDS011;29078;41.932;25.554;2023-01-16T08:07:28;29.85;;;21.15;;
43487;SDS011;29078;41.932;25.554;2023-01-16T08:09:54;30.77;;;23.05;;
43487;SDS011;29078;41.932;25.554;2023-01-16T08:12:19;17.77;;;15.23;;
43487;SDS011;29078;41.932;25.554;2023-01-16T08:14:45;25.58;;;18.90;;
43487;SDS011;29078;41.932;25.554;2023-01-16T08:17:10;19.85;;;15.82;;
43487;SDS011;29078;41.932;25.554;2023-01-16T08:19:36;21.13;;;15.55;;
43487;SDS011;29078;41.932;25.554;2023-01-16T08:22:01;20.33;;;15.23;;
43487;SDS011;29078;41.932;25.554;2023-01-16T08:24:27;15.82;;;12.45;;
43487;SDS011;29078;41.932;25.554;2023-01-16T08:26:55;19.98;;;13.70;;
43487;SDS011;29078;41.932;25.554;2023-01-16T08:29:22;16.10;;;12.38;;
43487;SDS011;29078;41.932;25.554;2023-01-16T08:31:47;16.70;;;12.85;;
43487;SDS011;29078;41.932;25.554;2023-01-16T08:34:13;15.13;;;12.48;;
43487;SDS011;29078;41.932;25.554;2023-01-16T08:36:39;13.77;;;10.50;;
43487;SDS011;29078;41.932;25.554;2023-01-16T08:39:04;13.05;;;10.93;;
43487;SDS011;29078;41.932;25.554;2023-01-16T08:41:29;14.13;;;11.05;;
43487;SDS011;29078;41.932;25.554;2023-01-16T08:44:14;15.65;;;11.88;;
43487;SDS011;29078;41.932;25.554;2023-01-16T08:46:59;16.80;;;13.23;;
43487;SDS011;29078;41.932;25.554;2023-01-16T08:49:45;16.90;;;13.60;;
43487;SDS011;29078;41.932;25.554;2023-01-16T08:52:31;15.73;;;11.73;;
43487;SDS011;29078;41.932;25.554;2023-01-16T08:54:58;15.75;;;12.15;;
43487;SDS011;29078;41.932;25.554;2023-01-16T08:57:25;16.10;;;12.75;;
43487;SDS011;29078;41.932;25.554;2023-01-16T08:59:52;16.15;;;12.13;;
43487;SDS011;29078;41.932;25.554;2023-01-16T09:02:18;17.65;;;13.35;;
43487;SDS011;29078;41.932;25.554;2023-01-16T09:04:44;16.70;;;13.15;;
43487;SDS011;29078;41.932;25.554;2023-01-16T09:07:10;16.70;;;13.02;;
43487;SDS011;29078;41.932;25.554;2023-01-16T09:09:36;15.38;;;11.63;;
43487;SDS011;29078;41.932;25.554;2023-01-16T09:12:01;13.32;;;11.30;;
43487;SDS011;29078;41.932;25.554;2023-01-16T09:14:46;14.52;;;11.80;;
43487;SDS011;29078;41.932;25.554;2023-01-16T09:17:11;18.10;;;14.45;;
43487;SDS011;29078;41.932;25.554;2023-01-16T09:19:37;25.67;;;19.80;;
43487;SDS011;29078;41.932;25.554;2023-01-16T09:22:03;16.38;;;13.32;;
43487;SDS011;29078;41.932;25.554;2023-01-16T09:24:33;14.13;;;11.70;;
43487;SDS011;29078;41.932;25.554;2023-01-16T09:27:00;12.77;;;10.77;;
43487;SDS011;29078;41.932;25.554;2023-01-16T09:29:26;13.43;;;10.77;;
43487;SDS011;29078;41.932;25.554;2023-01-16T09:31:52;10.48;;;9.27;;
43487;SDS011;29078;41.932;25.554;2023-01-16T09:34:18;15.40;;;11.45;;
43487;SDS011;29078;41.932;25.554;2023-01-16T09:36:43;11.43;;;9.30;;
43487;SDS011;29078;41.932;25.554;2023-01-16T09:39:09;12.27;;;9.63;;
43487;SDS011;29078;41.932;25.554;2023-01-16T09:41:35;12.77;;;10.07;;
43487;SDS011;29078;41.932;25.554;2023-01-16T09:44:32;14.88;;;11.02;;
43487;SDS011;29078;41.932;25.554;2023-01-16T09:46:58;13.90;;;11.15;;
43487;SDS011;29078;41.932;25.554;2023-01-16T09:49:30;15.05;;;10.68;;
43487;SDS011;29078;41.932;25.554;2023-01-16T09:52:02;13.77;;;10.60;;
43487;SDS011;29078;41.932;25.554;2023-01-16T09:54:51;11.15;;;9.70;;
43487;SDS011;29078;41.932;25.554;2023-01-16T09:57:38;13.52;;;10.45;;
43487;SDS011;29078;41.932;25.554;2023-01-16T10:00:24;17.02;;;15.23;;
43487;SDS011;29078;41.932;25.554;2023-01-16T10:02:54;17.15;;;10.68;;
43487;SDS011;29078;41.932;25.554;2023-01-16T10:05:20;11.73;;;9.35;;
43487;SDS011;29078;41.932;25.554;2023-01-16T10:12:55;12.82;;;10.85;;
43487;SDS011;29078;41.932;25.554;2023-01-16T10:23:52;13.05;;;11.13;;
43487;SDS011;29078;41.932;25.554;2023-01-16T10:32:01;14.95;;;12.50;;
43487;SDS011;29078;41.932;25.554;2023-01-16T10:34:39;16.63;;;13.23;;
43487;SDS011;29078;41.932;25.554;2023-01-16T10:39:41;12.73;;;11.40;;
43487;SDS011;29078;41.932;25.554;2023-01-16T10:42:14;15.32;;;11.70;;
43487;SDS011;29078;41.932;25.554;2023-01-16T10:45:21;12.35;;;11.00;;
43487;SDS011;29078;41.932;25.554;2023-01-16T10:48:09;15.07;;;12.65;;
43487;SDS011;29078;41.932;25.554;2023-01-16T10:50:55;19.25;;;15.40;;
43487;SDS011;29078;41.932;25.554;2023-01-16T10:53:21;18.75;;;13.88;;
43487;SDS011;29078;41.932;25.554;2023-01-16T10:55:47;18.65;;;15.30;;
43487;SDS011;29078;41.932;25.554;2023-01-16T10:58:36;23.65;;;17.23;;
43487;SDS011;29078;41.932;25.554;2023-01-16T11:01:06;19.23;;;16.38;;
43487;SDS011;29078;41.932;25.554;2023-01-16T11:06:22;22.52;;;17.05;;
43487;SDS011;29078;41.932;25.554;2023-01-16T11:08:59;22.17;;;15.90;;
43487;SDS011;29078;41.932;25.554;2023-01-16T11:11:25;21.73;;;17.10;;
43487;SDS011;29078;41.932;25.554;2023-01-16T11:17:26;22.27;;;17.77;;
43487;SDS011;29078;41.932;25.554;2023-01-16T11:20:19;25.30;;;18.02;;
43487;SDS011;29078;41.932;25.554;2023-01-16T11:25:41;27.92;;;21.05;;
43487;SDS011;29078;41.932;25.554;2023-01-16T11:28:10;25.65;;;17.90;;
43487;SDS011;29078;41.932;25.554;2023-01-16T11:30:43;24.48;;;18.23;;
43487;SDS011;29078;41.932;25.554;2023-01-16T11:33:14;22.48;;;16.55;;
43487;SDS011;29078;41.932;25.554;2023-01-16T11:35:48;20.85;;;16.27;;
43487;SDS011;29078;41.932;25.554;2023-01-16T11:38:18;20.75;;;16.40;;
43487;SDS011;29078;41.932;25.554;2023-01-16T11:40:45;25.60;;;19.98;;
43487;SDS011;29078;41.932;25.554;2023-01-16T11:43:15;23.73;;;18.08;;
43487;SDS011;29078;41.932;25.554;2023-01-16T11:46:06;25.45;;;19.08;;
43487;SDS011;29078;41.932;25.554;2023-01-16T11:48:45;29.15;;;21.90;;
43487;SDS011;29078;41.932;25.554;2023-01-16T11:51:16;26.30;;;18.50;;
43487;SDS011;29078;41.932;25.554;2023-01-16T11:53:44;24.67;;;19.88;;
43487;SDS011;29078;41.932;25.554;2023-01-16T12:04:48;26.40;;;19.15;;
43487;SDS011;29078;41.932;25.554;2023-01-16T12:13:17;28.23;;;19.23;;
43487;SDS011;29078;41.932;25.554;2023-01-16T12:21:34;30.50;;;22.20;;
43487;SDS011;29078;41.932;25.554;2023-01-16T12:24:09;28.20;;;20.75;;
43487;SDS011;29078;41.932;25.554;2023-01-16T12:35:31;26.83;;;20.90;;
43487;SDS011;29078;41.932;25.554;2023-01-16T12:38:10;26.52;;;18.80;;
43487;SDS011;29078;41.932;25.554;2023-01-16T12:44:10;31.85;;;22.45;;
43487;SDS011;29078;41.932;25.554;2023-01-16T12:52:22;29.67;;;22.00;;
43487;SDS011;29078;41.932;25.554;2023-01-16T13:00:40;29.20;;;21.90;;
43487;SDS011;29078;41.932;25.554;2023-01-16T13:03:21;28.85;;;20.70;;
43487;SDS011;29078;41.932;25.554;2023-01-16T13:06:06;25.27;;;18.80;;
43487;SDS011;29078;41.932;25.554;2023-01-16T13:08:38;28.35;;;20.77;;
43487;SDS011;29078;41.932;25.554;2023-01-16T13:11:10;28.42;;;20.20;;
43487;SDS011;29078;41.932;25.554;2023-01-16T13:14:01;26.63;;;20.67;;
43487;SDS011;29078;41.932;25.554;2023-01-16T13:24:39;33.40;;;22.60;;
43487;SDS011;29078;41.932;25.554;2023-01-16T13:27:13;34.80;;;24.17;;
43487;SDS011;29078;41.932;25.554;2023-01-16T13:29:44;34.08;;;24.52;;
43487;SDS011;29078;41.932;25.554;2023-01-16T13:32:22;31.02;;;22.65;;
43487;SDS011;29078;41.932;25.554;2023-01-16T13:35:14;28.40;;;20.17;;
43487;SDS011;29078;41.932;25.554;2023-01-16T13:40:37;29.30;;;20.70;;
43487;SDS011;29078;41.932;25.554;2023-01-16T13:43:18;29.67;;;20.23;;
43487;SDS011;29078;41.932;25.554;2023-01-16T13:46:07;27.98;;;20.08;;
43487;SDS011;29078;41.932;25.554;2023-01-16T13:48:34;31.63;;;20.58;;
43487;SDS011;29078;41.932;25.554;2023-01-16T13:51:14;30.45;;;23.10;;
43487;SDS011;29078;41.932;25.554;2023-01-16T13:53:43;30.80;;;21.90;;
43487;SDS011;29078;41.932;25.554;2023-01-16T13:56:14;32.72;;;20.70;;
43487;SDS011;29078;41.932;25.554;2023-01-16T13:58:46;33.17;;;24.20;;
43487;SDS011;29078;41.932;25.554;2023-01-16T14:01:52;32.90;;;22.80;;
43487;SDS011;29078;41.932;25.554;2023-01-16T14:06:55;31.30;;;23.40;;
43487;SDS011;29078;41.932;25.554;2023-01-16T14:21:22;40.28;;;28.88;;
43487;SDS011;29078;41.932;25.554;2023-01-16T14:23:58;35.70;;;24.38;;
43487;SDS011;29078;41.932;25.554;2023-01-16T14:29:00;34.03;;;23.48;;
43487;SDS011;29078;41.932;25.554;2023-01-16T14:31:39;38.95;;;28.58;;
43487;SDS011;29078;41.932;25.554;2023-01-16T14:34:17;36.58;;;25.95;;
43487;SDS011;29078;41.932;25.554;2023-01-16T14:36:50;32.47;;;25.48;;
43487;SDS011;29078;41.932;25.554;2023-01-16T14:39:28;34.83;;;25.95;;
43487;SDS011;29078;41.932;25.554;2023-01-16T14:41:59;38.72;;;26.70;;
43487;SDS011;29078;41.932;25.554;2023-01-16T14:47:45;35.30;;;27.30;;
43487;SDS011;29078;41.932;25.554;2023-01-16T14:50:44;36.33;;;26.27;;
43487;SDS011;29078;41.932;25.554;2023-01-16T14:53:39;39.72;;;27.13;;
43487;SDS011;29078;41.932;25.554;2023-01-16T14:56:25;38.75;;;28.55;;
43487;SDS011;29078;41.932;25.554;2023-01-16T14:58:56;39.25;;;26.90;;
43487;SDS011;29078;41.932;25.554;2023-01-16T15:01:32;38.65;;;27.52;;
43487;SDS011;29078;41.932;25.554;2023-01-16T15:04:21;38.88;;;26.27;;
43487;SDS011;29078;41.932;25.554;2023-01-16T15:06:50;34.92;;;27.10;;
43487;SDS011;29078;41.932;25.554;2023-01-16T15:09:20;38.05;;;29.13;;
43487;SDS011;29078;41.932;25.554;2023-01-16T15:12:19;34.75;;;27.05;;
43487;SDS011;29078;41.932;25.554;2023-01-16T15:14:50;41.67;;;32.17;;
43487;SDS011;29078;41.932;25.554;2023-01-16T15:23:04;44.38;;;31.90;;
43487;SDS011;29078;41.932;25.554;2023-01-16T15:31:05;50.08;;;36.53;;
43487;SDS011;29078;41.932;25.554;2023-01-16T15:34:02;52.88;;;34.75;;
43487;SDS011;29078;41.932;25.554;2023-01-16T15:36:32;50.90;;;35.88;;
43487;SDS011;29078;41.932;25.554;2023-01-16T15:38:59;45.03;;;32.05;;
43487;SDS011;29078;41.932;25.554;2023-01-16T15:41:32;51.45;;;37.50;;
43487;SDS011;29078;41.932;25.554;2023-01-16T15:44:17;52.58;;;39.30;;
43487;SDS011;29078;41.932;25.554;2023-01-16T15:49:47;46.55;;;33.25;;
43487;SDS011;29078;41.932;25.554;2023-01-16T15:52:14;51.65;;;38.67;;
43487;SDS011;29078;41.932;25.554;2023-01-16T15:54:39;60.42;;;46.78;;
43487;SDS011;29078;41.932;25.554;2023-01-16T15:57:10;76.15;;;56.05;;
43487;SDS011;29078;41.932;25.554;2023-01-16T15:59:48;64.97;;;48.92;;
43487;SDS011;29078;41.932;25.554;2023-01-16T16:02:19;63.97;;;47.08;;
43487;SDS011;29078;41.932;25.554;2023-01-16T16:04:53;68.57;;;51.00;;
43487;SDS011;29078;41.932;25.554;2023-01-16T16:07:22;64.13;;;46.65;;
43487;SDS011;29078;41.932;25.554;2023-01-16T16:09:49;67.35;;;47.22;;
43487;SDS011;29078;41.932;25.554;2023-01-16T16:12:18;62.58;;;43.83;;
43487;SDS011;29078;41.932;25.554;2023-01-16T16:14:45;60.45;;;43.63;;
43487;SDS011;29078;41.932;25.554;2023-01-16T16:17:41;66.35;;;47.15;;
43487;SDS011;29078;41.932;25.554;2023-01-16T16:20:34;66.95;;;49.45;;
43487;SDS011;29078;41.932;25.554;2023-01-16T16:33:53;74.22;;;49.88;;
43487;SDS011;29078;41.932;25.554;2023-01-16T16:36:19;65.28;;;46.92;;
43487;SDS011;29078;41.932;25.554;2023-01-16T16:38:48;65.50;;;45.95;;
43487;SDS011;29078;41.932;25.554;2023-01-16T16:43:57;63.75;;;46.63;;
43487;SDS011;29078;41.932;25.554;2023-01-16T16:48:49;59.40;;;42.58;;
43487;SDS011;29078;41.932;25.554;2023-01-16T16:54:03;54.65;;;39.92;;
43487;SDS011;29078;41.932;25.554;2023-01-16T16:56:33;58.45;;;38.22;;
43487;SDS011;29078;41.932;25.554;2023-01-16T16:59:01;47.15;;;34.60;;
43487;SDS011;29078;41.932;25.554;2023-01-16T17:01:27;37.83;;;28.85;;
43487;SDS011;29078;41.932;25.554;2023-01-16T17:03:55;36.65;;;29.13;;
43487;SDS011;29078;41.932;25.554;2023-01-16T17:06:26;31.67;;;23.83;;
43487;SDS011;29078;41.932;25.554;2023-01-16T17:08:55;25.00;;;20.55;;
43487;SDS011;29078;41.932;25.554;2023-01-16T17:11:20;25.17;;;20.60;;
43487;SDS011;29078;41.932;25.554;2023-01-16T17:13:46;25.00;;;19.33;;
43487;SDS011;29078;41.932;25.554;2023-01-16T17:16:13;23.75;;;18.85;;
43487;SDS011;29078;41.932;25.554;2023-01-16T17:18:45;20.27;;;16.90;;
43487;SDS011;29078;41.932;25.554;2023-01-16T17:21:12;26.42;;;18.38;;
43487;SDS011;29078;41.932;25.554;2023-01-16T17:23:40;22.70;;;18.55;;
43487;SDS011;29078;41.932;25.554;2023-01-16T17:26:06;24.10;;;18.58;;
43487;SDS011;29078;41.932;25.554;2023-01-16T17:28:33;22.80;;;18.67;;
43487;SDS011;29078;41.932;25.554;2023-01-16T17:30:58;26.17;;;19.25;;
43487;SDS011;29078;41.932;25.554;2023-01-16T17:33:23;25.90;;;18.83;;
43487;SDS011;29078;41.932;25.554;2023-01-16T17:35:52;23.25;;;18.08;;
43487;SDS011;29078;41.932;25.554;2023-01-16T17:38:38;20.20;;;16.48;;
43487;SDS011;29078;41.932;25.554;2023-01-16T17:41:05;21.95;;;17.10;;